Crown Topaz — 3FAS9 — position and weather

sailwx.info

Track history (hours):
 
Tides and Currents Weather Stations Pressure Air Temp Water Temp Dewpoint Dewpoint Depression Visibility Wind Speed Wind Dir Waves Ship Positions

Crown Topaz

Last reported at 2016-Jul-30 20:31 UTC. Time now 2016-Jul-31 07:23 UTC.
Position N 37°06' W 029°42'.

Length 152 m; draft 6.8 m.

Type: Cargo ship. MMSI: 357144000.

Date/timePositionNaut miles runAvg speedWind from/ knotsBaromVisibWave heightAir tempDewpointWater temp
2016-Jul-30 20:31N 37°06' W 029°42'1818.3
2016-Jul-30 19:33N 37°14' W 029°22'1918.6
2016-Jul-30 18:33N 37°23' W 029°02'1918.5
2016-Jul-30 17:33N 37°32' W 028°41'1918.5
2016-Jul-30 16:33N 37°41' W 028°21'1818.5
2016-Jul-30 15:34N 37°49' W 028°00'1818.2
2016-Jul-30 14:33N 37°58' W 027°40'1918.5
2016-Jul-30 13:34N 38°06' W 027°19'1918.6
2016-Jul-30 12:33N 38°15' W 026°58'1818.3
2016-Jul-30 11:33N 38°24' W 026°38'1818.0
2016-Jul-30 10:33N 38°33' W 026°18'1818.2
2016-Jul-30 09:33N 38°42' W 025°57'1818.4
2016-Jul-30 08:33N 38°52' W 025°38'1918.5
2016-Jul-30 07:33N 39°03' W 025°19'1818.3
2016-Jul-30 06:33N 39°14' W 024°60'  
2016-Jul-27 23:30N 49°01' W 005°55'1917.7
2016-Jul-27 22:27N 49°10' W 005°31'1617.5
2016-Jul-27 21:32N 49°17' W 005°08'1817.5
2016-Jul-27 20:29N 49°25' W 004°43'1818.0
2016-Jul-27 19:28N 49°34' W 004°18'1718.6
2016-Jul-27 18:34N 49°41' W 003°55'1918.8
2016-Jul-27 17:33N 49°48' W 003°28'1918.7
2016-Jul-27 16:34N 49°57' W 003°02'6616.3
2016-Jul-27 12:29N 50°16' W 001°23'1616.0
2016-Jul-27 11:30N 50°20' W 000°60'1717.5
2016-Jul-27 10:33N 50°24' W 000°34'1918.4
2016-Jul-27 09:30N 50°29' W 000°05'1818.9
2016-Jul-27 08:33N 50°34' E 000°23'3617.9
2016-Jul-27 06:33N 50°51' E 001°12'1616.0
2016-Jul-27 05:33N 51°03' E 001°28'1515.0
2016-Jul-27 04:33N 51°14' E 001°45'1615.8
2016-Jul-27 03:33N 51°24' E 002°03'1616.3
2016-Jul-27 02:33N 51°23' E 002°29'1413.9
2016-Jul-27 01:33N 51°22' E 002°52'1514.8
2016-Jul-27 00:33N 51°25' E 003°15'1414.0
2016-Jul-26 23:33N 51°26' E 003°37'1211.7
2016-Jul-26 22:33N 51°22' E 003°55'10 9.8
2016-Jul-26 21:33N 51°23' E 004°10'5 5.1
2016-Jul-26 20:34N 51°21' E 004°17'0 0.3
2016-Jul-26 19:33N 51°21' E 004°18'5 4.9
2016-Jul-26 18:33N 51°16' E 004°21'1 1.3
2016-Jul-26 17:31N 51°16' E 004°23'0 0.0
2016-Jul-26 16:31N 51°16' E 004°23'0 0.0
2016-Jul-26 15:31N 51°16' E 004°23'0 0.0
2016-Jul-26 14:31N 51°16' E 004°23'0 0.0
2016-Jul-26 13:34N 51°16' E 004°23'0 0.0
2016-Jul-26 12:34N 51°16' E 004°23'0 0.0
2016-Jul-26 11:31N 51°16' E 004°23'0 0.0
2016-Jul-26 10:31N 51°16' E 004°23'0 0.0
2016-Jul-26 09:31N 51°16' E 004°23'0 0.0
2016-Jul-26 08:31N 51°16' E 004°23'0 0.0
2016-Jul-26 07:31N 51°16' E 004°23'0 0.0
2016-Jul-26 06:31N 51°16' E 004°23'0 0.0
2016-Jul-26 05:31N 51°16' E 004°23'0 0.0
2016-Jul-26 04:31N 51°16' E 004°23'0 0.0
2016-Jul-26 03:31N 51°16' E 004°23'0 0.0
2016-Jul-26 02:31N 51°16' E 004°23'0 0.0
2016-Jul-26 01:31N 51°16' E 004°23'0 0.0
2016-Jul-26 00:31N 51°16' E 004°23'0 0.0
2016-Jul-25 23:34N 51°16' E 004°23'0 0.0
2016-Jul-25 22:34N 51°16' E 004°23'0 0.0
2016-Jul-25 21:31N 51°16' E 004°23'0 0.0
2016-Jul-25 20:31N 51°16' E 004°23'0 0.0
2016-Jul-25 19:31N 51°16' E 004°23'0 0.0
2016-Jul-25 18:34N 51°16' E 004°23'0 0.0
2016-Jul-25 17:31N 51°16' E 004°23'0 0.0
2016-Jul-25 16:31N 51°16' E 004°23'0 0.0
2016-Jul-25 15:31N 51°16' E 004°23'0 0.0
2016-Jul-25 14:31N 51°16' E 004°23'0 0.0
2016-Jul-25 13:34N 51°16' E 004°23'0 0.0
2016-Jul-25 12:31N 51°16' E 004°23'0 0.0
2016-Jul-25 11:34N 51°16' E 004°23'2 1.9
2016-Jul-25 10:34N 51°17' E 004°20'0 0.1
2016-Jul-25 09:34N 51°17' E 004°20'6 5.8
2016-Jul-25 08:33N 51°21' E 004°14'8 7.8
2016-Jul-25 07:33N 51°23' E 004°02'7 7.2
2016-Jul-25 06:33N 51°21' E 003°51'1111.2
2016-Jul-25 05:33N 51°26' E 003°35'1313.0
2016-Jul-25 04:33N 51°24' E 003°14'1414.4
2016-Jul-25 03:33N 51°22' E 002°52'1111.1
2016-Jul-25 02:33N 51°22' E 002°34'1717.0
2016-Jul-25 01:33N 51°15' E 002°09'1918.6
2016-Jul-25 00:33N 51°06' E 001°44'1717.2
2016-Jul-24 23:33N 50°53' E 001°26'5116.3
2016-Jul-24 20:25N 50°25' E 000°19'1517.1
2016-Jul-24 19:33N 50°22' W 000°04'1716.7
2016-Jul-24 18:32N 50°22' W 000°31'1515.3
2016-Jul-24 17:33N 50°31' W 000°49'1211.8
2016-Jul-24 16:33N 50°41' W 000°59'9 9.0
2016-Jul-24 15:33N 50°49' W 001°06'1 0.5
2016-Jul-24 14:33N 50°49' W 001°06'0 0.0
2016-Jul-24 13:33N 50°49' W 001°06'0 0.0
2016-Jul-24 12:33N 50°49' W 001°06'0 0.0
2016-Jul-24 11:33N 50°49' W 001°06'0 0.0
2016-Jul-24 10:33N 50°49' W 001°06'0 0.0
2016-Jul-24 09:33N 50°49' W 001°06'0 0.0
2016-Jul-24 08:33N 50°49' W 001°06'0 0.0
2016-Jul-24 07:33N 50°49' W 001°06'0 0.0
2016-Jul-24 06:33N 50°49' W 001°06'0 0.0
2016-Jul-24 05:33N 50°49' W 001°06'0 0.0
2016-Jul-24 04:33N 50°49' W 001°06'0 0.0
2016-Jul-24 03:33N 50°49' W 001°06'0 0.0
2016-Jul-24 02:33N 50°49' W 001°06'0 0.0
2016-Jul-24 01:33N 50°49' W 001°06'0 0.0
2016-Jul-24 00:33N 50°49' W 001°06'0 0.0
2016-Jul-23 23:33N 50°49' W 001°06'0 0.0
2016-Jul-23 22:33N 50°49' W 001°06'0 0.0
2016-Jul-23 21:33N 50°49' W 001°06'0 0.0
2016-Jul-23 20:33N 50°49' W 001°06'0 0.0
2016-Jul-23 19:33N 50°49' W 001°06'0 0.0
2016-Jul-23 18:33N 50°49' W 001°06'0 0.0
2016-Jul-23 17:33N 50°49' W 001°06'0 0.0
2016-Jul-23 16:33N 50°49' W 001°06'0 0.0
2016-Jul-23 15:33N 50°49' W 001°06'0 0.0
2016-Jul-23 14:33N 50°49' W 001°06'0 0.0
2016-Jul-23 13:33N 50°49' W 001°06'0 0.0
2016-Jul-23 12:33N 50°49' W 001°06'0 0.0
2016-Jul-23 11:33N 50°49' W 001°06'0 0.1
2016-Jul-23 10:33N 50°49' W 001°06'6 5.6
2016-Jul-23 09:33N 50°44' W 001°02'1110.8
2016-Jul-23 08:34N 50°33' W 001°01'2519.0
2016-Jul-23 07:13N 50°23' W 001°38'1416.2
2016-Jul-23 06:22N 50°19' W 001°58'2815.1
2016-Jul-23 04:33N 50°10' W 002°39'1615.9
2016-Jul-23 03:34N 50°04' W 003°02'1616.1
2016-Jul-23 02:33N 50°01' W 003°27'1616.1
2016-Jul-23 01:33N 49°55' W 003°50'1716.3
2016-Jul-23 00:32N 49°51' W 004°15'1616.8
2016-Jul-22 23:33N 49°46' W 004°39'1917.1
2016-Jul-22 22:27N 49°39' W 005°07'7418.2
2016-Jul-22 18:24N 49°21' W 006°56'  
Track history (hours):
 
Tides and Currents Weather Stations Pressure Air Temp Water Temp Dewpoint Dewpoint Depression Visibility Wind Speed Wind Dir Waves Ship Positions

Crown Topaz

Last reported at 2016-Jul-30 20:31 UTC. Time now 2016-Jul-31 07:23 UTC.
Position N 37°06' W 029°42'.

Length 152 m; draft 6.8 m.

Type: Cargo ship. MMSI: 357144000.

Date/timePositionNaut miles runAvg speedWind from/ knotsBaromVisibWave heightAir tempDewpointWater temp
2016-Jul-30 20:31N 37°06' W 029°42'1818.3
2016-Jul-30 19:33N 37°14' W 029°22'1918.6
2016-Jul-30 18:33N 37°23' W 029°02'1918.5
2016-Jul-30 17:33N 37°32' W 028°41'1918.5
2016-Jul-30 16:33N 37°41' W 028°21'1818.5
2016-Jul-30 15:34N 37°49' W 028°00'1818.2
2016-Jul-30 14:33N 37°58' W 027°40'1918.5
2016-Jul-30 13:34N 38°06' W 027°19'1918.6
2016-Jul-30 12:33N 38°15' W 026°58'1818.3
2016-Jul-30 11:33N 38°24' W 026°38'1818.0
2016-Jul-30 10:33N 38°33' W 026°18'1818.2
2016-Jul-30 09:33N 38°42' W 025°57'1818.4
2016-Jul-30 08:33N 38°52' W 025°38'1918.5
2016-Jul-30 07:33N 39°03' W 025°19'1818.3
2016-Jul-30 06:33N 39°14' W 024°60'  
2016-Jul-27 23:30N 49°01' W 005°55'1917.7
2016-Jul-27 22:27N 49°10' W 005°31'1617.5
2016-Jul-27 21:32N 49°17' W 005°08'1817.5
2016-Jul-27 20:29N 49°25' W 004°43'1818.0
2016-Jul-27 19:28N 49°34' W 004°18'1718.6
2016-Jul-27 18:34N 49°41' W 003°55'1918.8
2016-Jul-27 17:33N 49°48' W 003°28'1918.7
2016-Jul-27 16:34N 49°57' W 003°02'6616.3
2016-Jul-27 12:29N 50°16' W 001°23'1616.0
2016-Jul-27 11:30N 50°20' W 000°60'1717.5
2016-Jul-27 10:33N 50°24' W 000°34'1918.4
2016-Jul-27 09:30N 50°29' W 000°05'1818.9
2016-Jul-27 08:33N 50°34' E 000°23'3617.9
2016-Jul-27 06:33N 50°51' E 001°12'1616.0
2016-Jul-27 05:33N 51°03' E 001°28'1515.0
2016-Jul-27 04:33N 51°14' E 001°45'1615.8
2016-Jul-27 03:33N 51°24' E 002°03'1616.3
2016-Jul-27 02:33N 51°23' E 002°29'1413.9
2016-Jul-27 01:33N 51°22' E 002°52'1514.8
2016-Jul-27 00:33N 51°25' E 003°15'1414.0
2016-Jul-26 23:33N 51°26' E 003°37'1211.7
2016-Jul-26 22:33N 51°22' E 003°55'10 9.8
2016-Jul-26 21:33N 51°23' E 004°10'5 5.1
2016-Jul-26 20:34N 51°21' E 004°17'0 0.3
2016-Jul-26 19:33N 51°21' E 004°18'5 4.9
2016-Jul-26 18:33N 51°16' E 004°21'1 1.3
2016-Jul-26 17:31N 51°16' E 004°23'0 0.0
2016-Jul-26 16:31N 51°16' E 004°23'0 0.0
2016-Jul-26 15:31N 51°16' E 004°23'0 0.0
2016-Jul-26 14:31N 51°16' E 004°23'0 0.0
2016-Jul-26 13:34N 51°16' E 004°23'0 0.0
2016-Jul-26 12:34N 51°16' E 004°23'0 0.0
2016-Jul-26 11:31N 51°16' E 004°23'0 0.0
2016-Jul-26 10:31N 51°16' E 004°23'0 0.0
2016-Jul-26 09:31N 51°16' E 004°23'0 0.0
2016-Jul-26 08:31N 51°16' E 004°23'0 0.0
2016-Jul-26 07:31N 51°16' E 004°23'0 0.0
2016-Jul-26 06:31N 51°16' E 004°23'0 0.0
2016-Jul-26 05:31N 51°16' E 004°23'0 0.0
2016-Jul-26 04:31N 51°16' E 004°23'0 0.0
2016-Jul-26 03:31N 51°16' E 004°23'0 0.0
2016-Jul-26 02:31N 51°16' E 004°23'0 0.0
2016-Jul-26 01:31N 51°16' E 004°23'0 0.0
2016-Jul-26 00:31N 51°16' E 004°23'0 0.0
2016-Jul-25 23:34N 51°16' E 004°23'0 0.0
2016-Jul-25 22:34N 51°16' E 004°23'0 0.0
2016-Jul-25 21:31N 51°16' E 004°23'0 0.0
2016-Jul-25 20:31N 51°16' E 004°23'0 0.0
2016-Jul-25 19:31N 51°16' E 004°23'0 0.0
2016-Jul-25 18:34N 51°16' E 004°23'0 0.0
2016-Jul-25 17:31N 51°16' E 004°23'0 0.0
2016-Jul-25 16:31N 51°16' E 004°23'0 0.0
2016-Jul-25 15:31N 51°16' E 004°23'0 0.0
2016-Jul-25 14:31N 51°16' E 004°23'0 0.0
2016-Jul-25 13:34N 51°16' E 004°23'0 0.0
2016-Jul-25 12:31N 51°16' E 004°23'0 0.0
2016-Jul-25 11:34N 51°16' E 004°23'2 1.9
2016-Jul-25 10:34N 51°17' E 004°20'0 0.1
2016-Jul-25 09:34N 51°17' E 004°20'6 5.8
2016-Jul-25 08:33N 51°21' E 004°14'8 7.8
2016-Jul-25 07:33N 51°23' E 004°02'7 7.2
2016-Jul-25 06:33N 51°21' E 003°51'1111.2
2016-Jul-25 05:33N 51°26' E 003°35'1313.0
2016-Jul-25 04:33N 51°24' E 003°14'1414.4
2016-Jul-25 03:33N 51°22' E 002°52'1111.1
2016-Jul-25 02:33N 51°22' E 002°34'1717.0
2016-Jul-25 01:33N 51°15' E 002°09'1918.6
2016-Jul-25 00:33N 51°06' E 001°44'1717.2
2016-Jul-24 23:33N 50°53' E 001°26'5116.3
2016-Jul-24 20:25N 50°25' E 000°19'1517.1
2016-Jul-24 19:33N 50°22' W 000°04'1716.7
2016-Jul-24 18:32N 50°22' W 000°31'1515.3
2016-Jul-24 17:33N 50°31' W 000°49'1211.8
2016-Jul-24 16:33N 50°41' W 000°59'9 9.0
2016-Jul-24 15:33N 50°49' W 001°06'1 0.5
2016-Jul-24 14:33N 50°49' W 001°06'0 0.0
2016-Jul-24 13:33N 50°49' W 001°06'0 0.0
2016-Jul-24 12:33N 50°49' W 001°06'0 0.0
2016-Jul-24 11:33N 50°49' W 001°06'0 0.0
2016-Jul-24 10:33N 50°49' W 001°06'0 0.0
2016-Jul-24 09:33N 50°49' W 001°06'0 0.0
2016-Jul-24 08:33N 50°49' W 001°06'0 0.0
2016-Jul-24 07:33N 50°49' W 001°06'0 0.0
2016-Jul-24 06:33N 50°49' W 001°06'0 0.0
2016-Jul-24 05:33N 50°49' W 001°06'0 0.0
2016-Jul-24 04:33N 50°49' W 001°06'0 0.0
2016-Jul-24 03:33N 50°49' W 001°06'0 0.0
2016-Jul-24 02:33N 50°49' W 001°06'0 0.0
2016-Jul-24 01:33N 50°49' W 001°06'0 0.0
2016-Jul-24 00:33N 50°49' W 001°06'0 0.0
2016-Jul-23 23:33N 50°49' W 001°06'0 0.0
2016-Jul-23 22:33N 50°49' W 001°06'0 0.0
2016-Jul-23 21:33N 50°49' W 001°06'0 0.0
2016-Jul-23 20:33N 50°49' W 001°06'0 0.0
2016-Jul-23 19:33N 50°49' W 001°06'0 0.0
2016-Jul-23 18:33N 50°49' W 001°06'0 0.0
2016-Jul-23 17:33N 50°49' W 001°06'0 0.0
2016-Jul-23 16:33N 50°49' W 001°06'0 0.0
2016-Jul-23 15:33N 50°49' W 001°06'0 0.0
2016-Jul-23 14:33N 50°49' W 001°06'0 0.0
2016-Jul-23 13:33N 50°49' W 001°06'0 0.0
2016-Jul-23 12:33N 50°49' W 001°06'0 0.0
2016-Jul-23 11:33N 50°49' W 001°06'0 0.1
2016-Jul-23 10:33N 50°49' W 001°06'6 5.6
2016-Jul-23 09:33N 50°44' W 001°02'1110.8
2016-Jul-23 08:34N 50°33' W 001°01'2519.0
2016-Jul-23 07:13N 50°23' W 001°38'1416.2
2016-Jul-23 06:22N 50°19' W 001°58'2815.1
2016-Jul-23 04:33N 50°10' W 002°39'1615.9
2016-Jul-23 03:34N 50°04' W 003°02'1616.1
2016-Jul-23 02:33N 50°01' W 003°27'1616.1
2016-Jul-23 01:33N 49°55' W 003°50'1716.3
2016-Jul-23 00:32N 49°51' W 004°15'1616.8
2016-Jul-22 23:33N 49°46' W 004°39'1917.1
2016-Jul-22 22:27N 49°39' W 005°07'7418.2
2016-Jul-22 18:24N 49°21' W 006°56'  

Dump ship's entire track history